Time;durP1;ratioP1;P1;durP2;ratioP2;P2;SDS_P1;SDS_P2;PMS_P1;PMS_P2;Temp;Humidity;BMP_temperature;BMP_pressure;BME280_temperature;BME280_humidity;BME280_pressure;Samples;Min_cycle;Max_cycle;Signal;HPM_P1;HPM_P2
2021/05/14 00:00:53;;;;;;;3.83;2.67;;;11.30;99.90;;;;;;4955412;28;20489;-76
2021/05/14 00:03:20;;;;;;;3.70;2.97;;;11.20;99.90;;;;;;4971302;28;20521;-75
2021/05/14 00:05:47;;;;;;;4.53;3.00;;;11.20;99.90;;;;;;4939303;28;20431;-73
2021/05/14 00:08:14;;;;;;;5.27;3.33;;;11.20;99.90;;;;;;4955240;28;20473;-73
2021/05/14 00:10:41;;;;;;;6.73;3.63;;;11.10;99.90;;;;;;4956888;28;20446;-77
2021/05/14 00:13:09;;;;;;;4.50;4.10;;;11.10;99.90;;;;;;4975447;28;21075;-75
2021/05/14 00:15:36;;;;;;;5.00;4.00;;;11.00;99.90;;;;;;4975183;28;20979;-76
2021/05/14 00:18:04;;;;;;;4.23;3.93;;;11.00;99.90;;;;;;4955766;28;20565;-74
2021/05/14 00:20:32;;;;;;;4.50;4.00;;;11.00;99.90;;;;;;4974244;28;20451;-77
2021/05/14 00:22:59;;;;;;;5.03;3.87;;;11.00;99.90;;;;;;4957892;28;20972;-74
2021/05/14 00:25:26;;;;;;;7.60;4.47;;;11.00;99.90;;;;;;4974701;28;20457;-75
2021/05/14 00:27:53;;;;;;;4.47;4.07;;;10.90;99.90;;;;;;4957588;28;20474;-74
2021/05/14 00:30:21;;;;;;;5.30;4.20;;;10.90;99.90;;;;;;4958545;28;20785;-75
2021/05/14 00:32:48;;;;;;;4.90;3.50;;;10.90;99.90;;;;;;4950257;28;20503;-73
2021/05/14 00:35:15;;;;;;;3.80;3.27;;;10.90;99.90;;;;;;4951570;29;20483;-76
2021/05/14 00:37:42;;;;;;;2.80;2.00;;;11.00;99.90;;;;;;4940783;29;20499;-75
2021/05/14 00:40:09;;;;;;;2.53;2.33;;;11.10;99.90;;;;;;4968205;28;20438;-76
2021/05/14 00:42:38;;;;;;;2.63;2.07;;;11.10;99.90;;;;;;4974439;28;20457;-76
2021/05/14 00:45:07;;;;;;;2.53;2.33;;;11.20;99.90;;;;;;4975524;28;20423;-74
2021/05/14 00:47:34;;;;;;;3.00;2.57;;;11.30;99.90;;;;;;4945518;28;20476;-75
2021/05/14 00:50:03;;;;;;;3.65;2.45;;;11.20;99.90;;;;;;4956149;29;20431;-75
2021/05/14 00:52:30;;;;;;;3.08;2.20;;;11.20;99.90;;;;;;4967520;28;20223;-76
2021/05/14 00:54:57;;;;;;;2.45;2.17;;;11.20;99.90;;;;;;4955377;29;20199;-77
2021/05/14 00:57:25;;;;;;;2.50;2.25;;;11.20;99.90;;;;;;4954679;28;20630;-73
2021/05/14 00:59:52;;;;;;;2.60;2.20;;;11.10;99.90;;;;;;4954756;28;20822;-76
2021/05/14 01:02:19;;;;;;;2.53;2.33;;;11.10;99.90;;;;;;4955125;28;20286;-73
2021/05/14 01:04:46;;;;;;;3.60;2.70;;;11.10;99.90;;;;;;4954845;28;20944;-76
2021/05/14 01:07:14;;;;;;;2.67;2.10;;;11.00;99.90;;;;;;4955745;29;20443;-74
2021/05/14 01:09:42;;;;;;;4.47;2.90;;;10.90;99.90;;;;;;4954725;28;21005;-76
2021/05/14 01:12:10;;;;;;;3.40;2.60;;;10.90;99.90;;;;;;4955339;28;20424;-76
2021/05/14 01:14:41;;;;;;;3.30;2.93;;;10.80;99.90;;;;;;4955391;29;20929;-76
2021/05/14 01:17:11;;;;;;;3.30;3.00;;;10.80;99.90;;;;;;4954178;28;20471;-76
2021/05/14 01:19:38;;;;;;;3.77;2.77;;;10.80;99.90;;;;;;4959491;28;20447;-76
2021/05/14 01:22:05;;;;;;;4.10;3.17;;;10.70;99.90;;;;;;4947008;29;20440;-74
2021/05/14 01:24:32;;;;;;;3.77;3.47;;;10.70;99.90;;;;;;4953709;28;20448;-74
2021/05/14 01:27:00;;;;;;;4.90;3.57;;;10.70;99.90;;;;;;4955176;29;20451;-74
2021/05/14 01:29:28;;;;;;;3.37;3.07;;;10.70;99.90;;;;;;4959936;28;20466;-74
2021/05/14 01:31:55;;;;;;;3.93;3.23;;;10.60;99.90;;;;;;4957739;28;20441;-74
2021/05/14 01:34:26;;;;;;;4.40;3.30;;;10.60;99.90;;;;;;4973190;28;20462;-75
2021/05/14 01:36:54;;;;;;;5.60;3.67;;;10.60;99.90;;;;;;4974311;28;20474;-75
2021/05/14 01:39:25;;;;;;;3.83;3.50;;;10.50;99.90;;;;;;4973629;28;21066;-76
2021/05/14 01:41:53;;;;;;;4.77;4.27;;;10.50;99.90;;;;;;4956641;28;20505;-76
2021/05/14 01:44:22;;;;;;;5.07;3.60;;;10.40;99.90;;;;;;4954687;28;20471;-74
2021/05/14 01:46:49;;;;;;;4.97;3.93;;;10.30;99.90;;;;;;4954000;29;20248;-77
2021/05/14 01:49:17;;;;;;;6.00;4.20;;;10.30;99.90;;;;;;4946799;28;20473;-75
2021/05/14 01:51:45;;;;;;;6.10;4.53;;;10.30;99.90;;;;;;4935730;29;20438;-75
2021/05/14 01:54:12;;;;;;;4.60;4.20;;;10.30;99.90;;;;;;4969126;28;20969;-76
2021/05/14 01:56:50;;;;;;;5.93;3.83;;;10.20;99.90;;;;;;4956564;28;20563;-76
2021/05/14 01:59:20;;;;;;;4.50;4.10;;;10.20;99.90;;;;;;4973090;28;20453;-76
2021/05/14 02:01:47;;;;;;;5.13;4.63;;;10.10;99.90;;;;;;4988978;28;20960;-76
2021/05/14 02:04:14;;;;;;;4.93;4.53;;;10.00;99.90;;;;;;4972087;28;20468;-74
2021/05/14 02:06:41;;;;;;;4.57;4.13;;;10.00;99.90;;;;;;4973755;28;20849;-75
2021/05/14 02:09:09;;;;;;;4.78;3.65;;;10.00;99.90;;;;;;4972331;28;20211;-74
2021/05/14 02:11:35;;;;;;;7.10;5.55;;;9.90;99.90;;;;;;4956681;28;20197;-76
2021/05/14 02:14:04;;;;;;;6.28;4.80;;;10.00;99.90;;;;;;4947481;28;20300;-75
2021/05/14 02:16:31;;;;;;;4.80;4.40;;;9.90;99.90;;;;;;4935380;29;20218;-74
2021/05/14 02:18:58;;;;;;;5.00;4.50;;;9.90;99.90;;;;;;4935327;28;20295;-74
2021/05/14 02:21:25;;;;;;;6.85;4.00;;;9.90;99.90;;;;;;4940762;28;20228;-75
2021/05/14 02:23:52;;;;;;;4.47;3.80;;;10.00;99.90;;;;;;4955328;28;20222;-74
2021/05/14 02:26:19;;;;;;;6.22;4.70;;;10.00;99.90;;;;;;4972042;28;21058;-76
2021/05/14 02:28:46;;;;;;;4.30;3.90;;;10.00;99.90;;;;;;4973236;28;20229;-76
2021/05/14 02:31:13;;;;;;;7.10;4.05;;;10.00;99.90;;;;;;4955861;28;20192;-74
2021/05/14 02:33:40;;;;;;;5.93;4.05;;;10.10;99.90;;;;;;4971998;28;20226;-74
2021/05/14 02:36:07;;;;;;;4.47;3.30;;;10.00;99.90;;;;;;4972178;28;20694;-74
2021/05/14 02:38:34;;;;;;;5.18;4.20;;;10.00;99.90;;;;;;4968708;28;20228;-75
2021/05/14 02:41:04;;;;;;;5.85;4.43;;;10.00;99.90;;;;;;4973711;28;20188;-75
2021/05/14 02:43:31;;;;;;;6.55;4.20;;;10.10;99.90;;;;;;4956811;28;20585;-74
2021/05/14 02:46:01;;;;;;;4.55;4.15;;;10.00;99.90;;;;;;4972947;28;20275;-75
2021/05/14 02:48:28;;;;;;;6.43;4.50;;;10.10;99.90;;;;;;4954723;28;20232;-74
2021/05/14 02:50:55;;;;;;;5.28;4.10;;;10.00;99.90;;;;;;4960032;28;20236;-77
2021/05/14 02:53:22;;;;;;;6.63;4.57;;;9.90;99.90;;;;;;4972305;28;20220;-76
2021/05/14 02:55:48;;;;;;;9.65;5.10;;;9.90;99.90;;;;;;4972531;28;20213;-76
2021/05/14 02:58:15;;;;;;;5.97;4.25;;;9.90;99.90;;;;;;4954723;28;20333;-75
2021/05/14 03:00:45;;;;;;;4.88;3.83;;;9.80;99.90;;;;;;4956313;28;20670;-75
2021/05/14 03:03:12;;;;;;;3.78;3.38;;;9.70;99.90;;;;;;4950038;28;20715;-76
2021/05/14 03:05:39;;;;;;;5.03;3.53;;;9.60;99.90;;;;;;4955243;28;20280;-76
2021/05/14 03:08:08;;;;;;;6.20;4.78;;;9.50;99.90;;;;;;4963578;28;20253;-76
2021/05/14 03:10:37;;;;;;;4.93;4.00;;;9.50;99.90;;;;;;4934765;29;20464;-74
2021/05/14 03:13:06;;;;;;;4.88;3.92;;;9.40;99.90;;;;;;4952963;28;20249;-75
2021/05/14 03:15:33;;;;;;;5.03;4.43;;;9.30;99.90;;;;;;4953448;28;20727;-74
2021/05/14 03:18:00;;;;;;;4.63;4.23;;;9.30;99.90;;;;;;4935175;28;21035;-77
2021/05/14 03:20:27;;;;;;;5.97;4.60;;;9.10;99.90;;;;;;4953537;28;20432;-75
2021/05/14 03:22:54;;;;;;;7.47;4.30;;;9.00;99.90;;;;;;4968043;28;20239;-76
2021/05/14 03:25:22;;;;;;;5.55;3.88;;;9.10;99.90;;;;;;4961001;28;20658;-74
2021/05/14 03:27:51;;;;;;;6.18;4.63;;;9.10;99.90;;;;;;4935817;28;20228;-76
2021/05/14 03:30:18;;;;;;;8.25;4.47;;;9.00;99.90;;;;;;4939010;29;20216;-77
2021/05/14 03:32:45;;;;;;;7.43;4.30;;;9.00;99.90;;;;;;4967956;28;20291;-76
2021/05/14 03:35:12;;;;;;;5.30;4.28;;;8.90;99.90;;;;;;4924550;29;20235;-78
2021/05/14 03:37:40;;;;;;;6.65;4.25;;;8.90;99.90;;;;;;4954318;28;20217;-73
2021/05/14 03:40:44;;;;;;;6.95;4.43;;;8.90;99.90;;;;;;4966167;28;20564;-77
2021/05/14 03:43:04;;;;;;;9.07;4.15;;;8.80;99.90;;;;;;4951556;28;20217;-74
2021/05/14 03:45:31;;;;;;;4.75;4.13;;;8.80;99.90;;;;;;4924793;29;20196;-76
2021/05/14 03:48:19;;;;;;;4.57;4.18;;;8.90;99.90;;;;;;4913769;29;20232;-76
2021/05/14 03:50:53;;;;;;;5.63;4.43;;;8.90;99.90;;;;;;4953106;28;20212;-75
2021/05/14 03:53:21;;;;;;;5.63;3.97;;;8.80;99.90;;;;;;4962640;28;20230;-76
2021/05/14 03:55:50;;;;;;;4.38;3.72;;;8.80;99.90;;;;;;4955459;28;20199;-76
2021/05/14 03:58:17;;;;;;;6.45;3.92;;;8.70;99.90;;;;;;4945889;28;20220;-73
2021/05/14 04:00:52;;;;;;;5.55;3.53;;;8.70;99.90;;;;;;4920928;29;20741;-75
2021/05/14 04:03:22;;;;;;;5.35;4.32;;;8.80;99.90;;;;;;4927815;29;20223;-76
2021/05/14 04:05:52;;;;;;;4.55;3.67;;;8.80;99.90;;;;;;4970017;28;20276;-74
2021/05/14 04:08:25;;;;;;;5.00;4.00;;;8.80;99.90;;;;;;4956579;28;20258;-74
2021/05/14 04:16:26;;;;;;;6.30;4.28;;;8.70;99.90;;;;;;4948751;28;21278;-74
2021/05/14 04:18:53;;;;;;;4.20;3.83;;;8.70;99.90;;;;;;4923925;29;20216;-76
2021/05/14 04:21:23;;;;;;;5.00;4.28;;;8.80;99.90;;;;;;4905071;29;20189;-73
2021/05/14 04:23:50;;;;;;;7.45;3.72;;;8.80;99.90;;;;;;4944516;29;20244;-75
2021/05/14 04:26:17;;;;;;;6.60;3.78;;;8.80;99.90;;;;;;4956054;29;20275;-75
2021/05/14 04:28:44;;;;;;;6.10;4.22;;;8.80;99.90;;;;;;4941218;28;20224;-73
2021/05/14 04:31:11;;;;;;;5.97;5.32;;;8.90;99.90;;;;;;4920299;29;20205;-74
2021/05/14 04:33:38;;;;;;;4.50;3.80;;;8.80;99.90;;;;;;4948413;28;20215;-77
2021/05/14 04:36:06;;;;;;;5.50;4.65;;;8.90;99.90;;;;;;4939108;29;20203;-77
2021/05/14 04:38:33;;;;;;;7.28;4.85;;;8.90;99.90;;;;;;4937382;28;20220;-73
2021/05/14 04:41:02;;;;;;;5.68;3.40;;;8.90;99.90;;;;;;4943503;28;20191;-76
2021/05/14 04:43:29;;;;;;;5.90;4.47;;;9.00;99.90;;;;;;4926275;28;20698;-78
2021/05/14 04:45:56;;;;;;;6.43;3.65;;;9.00;99.90;;;;;;4919500;29;20193;-73
2021/05/14 04:48:25;;;;;;;8.18;5.30;;;9.10;99.90;;;;;;4904527;29;20228;-76
2021/05/14 04:50:53;;;;;;;6.80;4.28;;;9.10;99.90;;;;;;4936801;29;20681;-74
2021/05/14 04:53:22;;;;;;;4.68;4.07;;;9.20;99.90;;;;;;4943667;28;20883;-74
2021/05/14 04:55:49;;;;;;;7.85;3.75;;;9.20;99.90;;;;;;4935555;29;20244;-75
2021/05/14 04:58:16;;;;;;;4.82;3.92;;;9.20;99.90;;;;;;4936393;28;20244;-74
2021/05/14 05:00:45;;;;;;;4.45;3.60;;;9.20;99.90;;;;;;4925463;29;20659;-73
2021/05/14 05:03:12;;;;;;;5.93;3.63;;;9.40;99.90;;;;;;4913350;29;20264;-74
2021/05/14 05:05:40;;;;;;;4.70;4.30;;;9.40;99.90;;;;;;4938655;29;20197;-76
2021/05/14 05:08:08;;;;;;;4.53;3.97;;;9.50;99.90;;;;;;4945683;28;20229;-75
2021/05/14 05:10:38;;;;;;;4.80;4.30;;;9.50;99.90;;;;;;4935590;29;20193;-76
2021/05/14 05:13:08;;;;;;;5.07;4.40;;;9.50;99.90;;;;;;4936170;28;20261;-75
2021/05/14 05:15:34;;;;;;;7.85;4.72;;;9.50;99.90;;;;;;4919450;29;20191;-75
2021/05/14 05:18:04;;;;;;;5.18;4.68;;;9.60;99.90;;;;;;4911882;29;20228;-75
2021/05/14 05:20:32;;;;;;;5.65;5.13;;;9.70;99.90;;;;;;4937983;29;20193;-74
2021/05/14 05:23:07;;;;;;;4.97;4.15;;;9.70;99.90;;;;;;4923018;29;20224;-76
2021/05/14 05:25:34;;;;;;;5.15;4.70;;;9.70;99.90;;;;;;4954307;29;20920;-76
2021/05/14 05:28:03;;;;;;;9.40;4.43;;;9.80;99.90;;;;;;4946166;28;20258;-74
2021/05/14 05:30:30;;;;;;;6.38;4.55;;;9.80;99.90;;;;;;4919349;29;20273;-76
2021/05/14 05:32:57;;;;;;;6.05;5.45;;;9.90;99.90;;;;;;4943294;28;20217;-76
2021/05/14 05:35:24;;;;;;;6.40;4.83;;;10.00;99.90;;;;;;4919534;29;20235;-75
2021/05/14 05:37:59;;;;;;;3.43;3.13;;;10.20;99.90;;;;;;4931421;28;20475;-75
2021/05/14 05:40:26;;;;;;;6.60;3.87;;;10.40;99.90;;;;;;4954714;29;20443;-74
2021/05/14 05:42:53;;;;;;;4.37;3.97;;;10.60;99.90;;;;;;4935129;28;20532;-75
2021/05/14 05:45:20;;;;;;;3.60;3.30;;;10.80;99.90;;;;;;4963216;28;20454;-75
2021/05/14 05:47:50;;;;;;;6.53;3.27;;;10.90;99.90;;;;;;4935723;28;20491;-75
2021/05/14 05:50:17;;;;;;;4.43;2.77;;;11.00;99.90;;;;;;4935958;29;20434;-77
2021/05/14 05:52:46;;;;;;;2.73;2.53;;;11.40;99.90;;;;;;4902680;29;20690;-74
2021/05/14 05:55:16;;;;;;;6.17;2.70;;;11.60;99.90;;;;;;4922947;29;21134;-76
2021/05/14 05:57:43;;;;;;;7.20;3.53;;;11.70;99.90;;;;;;4951983;29;20475;-75
2021/05/14 06:00:11;;;;;;;4.57;2.60;;;11.80;99.90;;;;;;4953370;28;20442;-77
2021/05/14 06:02:41;;;;;;;3.07;2.20;;;11.90;99.90;;;;;;4930746;28;20484;-74
2021/05/14 06:05:09;;;;;;;5.97;2.10;;;12.00;99.90;;;;;;4934201;29;20456;-74
2021/05/14 06:07:40;;;;;;;2.37;1.90;;;11.90;99.90;;;;;;4933791;29;20874;-74
2021/05/14 06:10:07;;;;;;;4.80;2.40;;;12.00;99.90;;;;;;4933502;29;20577;-74
2021/05/14 06:12:36;;;;;;;3.60;2.30;;;11.90;99.90;;;;;;4915469;29;20468;-74
2021/05/14 06:15:07;;;;;;;2.67;2.10;;;12.00;99.90;;;;;;4918728;29;21249;-76
2021/05/14 06:17:38;;;;;;;3.10;1.70;;;12.00;99.90;;;;;;4937653;28;20518;-73
2021/05/14 06:20:08;;;;;;;9.73;2.40;;;12.10;99.90;;;;;;4934230;29;20810;-75
2021/05/14 06:22:35;;;;;;;3.53;1.83;;;12.30;99.90;;;;;;4942067;28;20463;-75
2021/05/14 06:25:06;;;;;;;3.57;2.10;;;12.30;99.90;;;;;;4953271;28;20443;-76
2021/05/14 06:27:33;;;;;;;2.27;1.97;;;12.30;99.90;;;;;;4952781;28;20478;-75
2021/05/14 06:30:04;;;;;;;1.60;1.37;;;12.20;99.90;;;;;;4954211;29;20439;-76
2021/05/14 06:32:33;;;;;;;2.07;1.80;;;12.20;99.90;;;;;;4935393;29;21012;-74
2021/05/14 06:35:00;;;;;;;3.43;1.70;;;12.20;99.90;;;;;;4953903;29;20439;-76
2021/05/14 06:37:35;;;;;;;1.90;1.70;;;12.30;99.90;;;;;;4936687;29;20477;-75
2021/05/14 06:40:07;;;;;;;3.53;1.73;;;12.60;99.90;;;;;;4936613;29;20447;-76
2021/05/14 06:42:35;;;;;;;1.43;1.33;;;12.90;99.90;;;;;;4951143;28;20464;-75
2021/05/14 06:45:07;;;;;;;2.30;1.77;;;13.10;99.90;;;;;;4956045;28;20441;-76
2021/05/14 06:47:34;;;;;;;1.20;1.10;;;13.40;99.90;;;;;;4971201;28;21055;-76
2021/05/14 06:50:05;;;;;;;1.47;1.17;;;13.60;99.90;;;;;;4972389;28;20459;-76
2021/05/14 06:52:43;;;;;;;2.83;1.33;;;13.80;99.90;;;;;;4955104;28;20467;-77
2021/05/14 06:55:14;;;;;;;1.70;1.53;;;13.90;99.90;;;;;;4926952;29;20448;-75
2021/05/14 06:57:46;;;;;;;1.83;1.40;;;14.10;99.90;;;;;;4965514;28;20557;-75
2021/05/14 07:00:14;;;;;;;1.23;1.13;;;14.20;99.90;;;;;;4953154;29;20804;-76
2021/05/14 07:02:40;;;;;;;2.47;1.70;;;14.30;99.90;;;;;;4957051;28;20508;-74
2021/05/14 07:05:09;;;;;;;2.07;1.83;;;14.50;99.90;;;;;;4971361;28;20483;-74
2021/05/14 07:07:42;;;;;;;2.20;1.90;;;14.80;99.90;;;;;;4971498;28;20845;-75
2021/05/14 07:10:15;;;;;;;5.87;1.67;;;14.90;99.90;;;;;;4925883;29;20459;-75
2021/05/14 07:12:44;;;;;;;2.70;1.57;;;15.10;99.90;;;;;;4947154;28;20865;-75
2021/05/14 07:15:14;;;;;;;3.77;2.00;;;15.10;99.90;;;;;;4955574;28;20435;-76
2021/05/14 07:17:41;;;;;;;4.70;1.60;;;15.20;99.90;;;;;;4956239;28;20526;-75
2021/05/14 07:20:13;;;;;;;2.67;1.87;;;15.20;99.90;;;;;;4972879;28;20449;-74
2021/05/14 07:22:45;;;;;;;2.30;1.67;;;15.20;99.90;;;;;;4952635;28;20464;-74
2021/05/14 07:25:13;;;;;;;1.70;1.53;;;15.20;99.90;;;;;;4953668;29;20451;-76
2021/05/14 07:27:40;;;;;;;2.53;1.70;;;15.10;99.90;;;;;;4956858;28;20471;-74
2021/05/14 07:30:14;;;;;;;5.10;3.63;;;15.10;99.90;;;;;;4959809;28;20443;-74
2021/05/14 07:32:41;;;;;;;2.93;2.03;;;15.20;99.90;;;;;;4964157;28;20889;-75
2021/05/14 07:35:09;;;;;;;3.27;1.90;;;15.30;99.90;;;;;;4967912;28;20823;-75
2021/05/14 07:37:36;;;;;;;2.30;1.60;;;15.30;99.90;;;;;;4964375;28;20467;-74
2021/05/14 07:40:07;;;;;;;2.40;1.63;;;15.40;99.90;;;;;;4953928;28;20482;-74
2021/05/14 07:42:37;;;;;;;3.33;1.70;;;15.60;99.80;;;;;;4957032;28;20515;-75
2021/05/14 07:45:04;;;;;;;1.73;1.60;;;15.60;99.60;;;;;;4942441;29;20450;-75
2021/05/14 07:47:31;;;;;;;2.10;1.63;;;15.80;99.70;;;;;;4941797;28;20479;-74
2021/05/14 07:50:01;;;;;;;2.00;1.57;;;15.80;98.90;;;;;;4963955;28;20496;-74
2021/05/14 07:52:32;;;;;;;5.87;3.87;;;15.90;96.90;;;;;;4923507;29;20511;-75
2021/05/14 07:55:07;;;;;;;2.23;1.47;;;16.00;96.40;;;;;;4935847;29;20954;-75
2021/05/14 07:57:37;;;;;;;1.77;1.53;;;16.00;96.90;;;;;;4946732;28;20509;-76
2021/05/14 08:00:05;;;;;;;1.90;1.60;;;16.00;98.00;;;;;;4979366;28;20485;-75
2021/05/14 08:02:35;;;;;;;1.80;1.07;;;16.20;95.70;;;;;;4976996;28;20976;-75
2021/05/14 08:05:02;;;;;;;1.83;1.27;;;16.10;95.40;;;;;;4961246;28;20445;-76
2021/05/14 08:07:30;;;;;;;3.73;1.60;;;16.20;95.50;;;;;;4959477;28;20463;-75
2021/05/14 08:09:57;;;;;;;2.03;1.63;;;16.10;95.70;;;;;;4975013;28;20474;-74
2021/05/14 08:12:34;;;;;;;1.77;1.40;;;16.20;96.40;;;;;;4953478;28;20458;-74
2021/05/14 08:15:17;;;;;;;4.10;1.40;;;16.40;95.60;;;;;;4947718;28;20450;-74
2021/05/14 08:17:48;;;;;;;1.37;1.10;;;16.50;95.90;;;;;;4965308;28;20501;-76
2021/05/14 08:20:25;;;;;;;2.23;2.00;;;16.50;94.10;;;;;;4979749;28;20449;-73
2021/05/14 08:22:55;;;;;;;1.83;1.60;;;16.70;93.90;;;;;;4978125;28;20471;-77
2021/05/14 08:25:22;;;;;;;1.53;1.20;;;17.00;92.90;;;;;;4960892;28;20521;-77
2021/05/14 08:27:49;;;;;;;2.50;1.47;;;17.10;91.40;;;;;;4978205;28;20888;-75
2021/05/14 08:30:19;;;;;;;3.37;2.00;;;17.30;91.30;;;;;;4975890;28;20767;-76
2021/05/14 08:32:46;;;;;;;3.83;2.90;;;17.50;91.50;;;;;;4948032;28;20582;-74
2021/05/14 08:35:16;;;;;;;2.70;2.17;;;;;;;;;;4977857;28;20447;-75
2021/05/14 08:37:46;;;;;;;3.47;1.40;;;17.80;88.90;;;;;;4955899;28;20469;-75
2021/05/14 08:40:23;;;;;;;1.47;1.37;;;17.90;85.10;;;;;;4965131;28;20451;-75
2021/05/14 08:43:01;;;;;;;1.47;1.10;;;17.60;85.00;;;;;;4939821;28;20546;-75
2021/05/14 08:45:38;;;;;;;1.73;1.63;;;17.40;87.10;;;;;;4935172;28;20462;-75
2021/05/14 08:48:13;;;;;;;18.40;3.10;;;17.20;86.80;;;;;;4974134;28;20474;-75
2021/05/14 08:50:42;;;;;;;5.70;2.07;;;16.90;90.20;;;;;;4942829;28;20785;-75
2021/05/14 08:53:33;;;;;;;3.40;2.10;;;16.60;91.10;;;;;;4972770;28;20507;-77
2021/05/14 08:56:00;;;;;;;1.60;1.50;;;16.40;92.10;;;;;;4981323;28;20432;-76
2021/05/14 08:58:28;;;;;;;3.27;1.43;;;16.10;93.30;;;;;;4955579;28;20797;-76
2021/05/14 09:01:04;;;;;;;1.67;1.30;;;16.00;92.70;;;;;;4954224;28;20435;-78
2021/05/14 09:03:31;;;;;;;3.07;1.20;;;15.80;93.50;;;;;;4932240;28;20474;-76
2021/05/14 09:06:03;;;;;;;3.77;1.30;;;15.70;95.20;;;;;;4958143;28;20446;-77
2021/05/14 09:08:31;;;;;;;1.73;1.57;;;15.50;95.70;;;;;;4973059;28;21038;-77
2021/05/14 09:10:59;;;;;;;1.37;1.20;;;15.50;95.30;;;;;;4969180;28;20837;-77
2021/05/14 09:13:36;;;;;;;4.37;1.60;;;15.50;96.10;;;;;;4983297;28;21074;-76
2021/05/14 09:16:05;;;;;;;3.97;1.63;;;15.40;96.70;;;;;;4988071;28;20461;-77
2021/05/14 09:18:32;;;;;;;3.70;1.63;;;15.40;97.60;;;;;;4971046;28;21006;-75
2021/05/14 09:21:03;;;;;;;2.77;1.87;;;15.40;97.70;;;;;;4975008;28;20466;-75
2021/05/14 09:23:36;;;;;;;5.40;2.03;;;15.30;97.80;;;;;;4976624;28;20466;-77
2021/05/14 09:26:13;;;;;;;4.10;2.77;;;15.20;98.80;;;;;;4919657;29;20456;-78
2021/05/14 09:28:50;;;;;;;4.43;2.10;;;15.10;99.40;;;;;;4961468;28;20458;-77
2021/05/14 09:31:25;;;;;;;3.73;2.07;;;15.10;98.80;;;;;;4974781;28;20816;-76
2021/05/14 09:34:00;;;;;;;4.13;2.13;;;15.10;98.80;;;;;;4973521;28;20479;-77
2021/05/14 09:36:30;;;;;;;3.03;2.53;;;15.10;99.20;;;;;;4955286;29;20450;-77
2021/05/14 09:38:58;;;;;;;3.57;1.50;;;15.10;99.40;;;;;;4953402;28;20510;-77
2021/05/14 09:41:37;;;;;;;1.60;1.50;;;15.00;99.00;;;;;;4945422;28;20466;-78
2021/05/14 09:44:20;;;;;;;2.60;2.27;;;15.00;97.90;;;;;;4938850;29;20997;-76
2021/05/14 09:46:57;;;;;;;3.17;2.10;;;15.00;99.40;;;;;;4949948;29;20500;-76
2021/05/14 09:49:28;;;;;;;1.83;1.63;;;14.90;99.90;;;;;;4938641;29;20455;-75
2021/05/14 09:52:09;;;;;;;3.30;1.37;;;14.90;99.90;;;;;;4937776;28;20646;-78
2021/05/14 09:54:42;;;;;;;2.03;1.53;;;14.80;99.90;;;;;;4953309;28;20526;-77
2021/05/14 09:57:20;;;;;;;1.67;0.93;;;14.80;99.90;;;;;;4947616;28;20519;-79
2021/05/14 09:59:50;;;;;;;1.50;1.40;;;14.80;99.90;;;;;;4937683;29;20440;-80
2021/05/14 10:02:30;;;;;;;2.83;1.83;;;14.70;99.90;;;;;;4952691;28;20505;-81
2021/05/14 10:05:20;;;;;;;2.43;1.10;;;14.60;99.90;;;;;;4931578;29;20452;-79
2021/05/14 10:07:47;;;;;;;6.40;3.10;;;14.50;99.90;;;;;;4952963;28;20807;-80
2021/05/14 10:10:22;;;;;;;3.97;2.60;;;14.50;99.90;;;;;;4936327;29;20449;-81
2021/05/14 10:12:51;;;;;;;4.40;3.10;;;14.40;99.90;;;;;;4964309;28;20919;-80
2021/05/14 10:15:21;;;;;;;4.30;1.87;;;14.30;99.90;;;;;;4953205;28;20501;-80
2021/05/14 10:17:51;;;;;;;3.33;1.80;;;14.20;99.90;;;;;;4935824;29;20999;-75
2021/05/14 10:20:22;;;;;;;3.30;2.10;;;14.10;99.90;;;;;;4936898;29;20435;-76
2021/05/14 10:22:51;;;;;;;2.87;1.97;;;14.10;99.90;;;;;;4940896;29;20538;-75
2021/05/14 10:25:47;;;;;;;2.00;1.70;;;14.10;99.90;;;;;;4931492;29;20858;-74
2021/05/14 10:28:21;;;;;;;2.20;1.43;;;14.10;99.90;;;;;;4934733;28;20458;-73
2021/05/14 10:31:02;;;;;;;2.27;1.63;;;14.20;99.90;;;;;;4941036;29;20537;-73
2021/05/14 10:33:57;;;;;;;2.17;1.80;;;14.20;99.90;;;;;;4939572;29;21055;-73
2021/05/14 10:36:31;;;;;;;1.97;1.80;;;14.30;99.90;;;;;;4952745;29;20441;-76
2021/05/14 10:39:08;;;;;;;1.90;1.40;;;14.30;99.90;;;;;;4952586;28;20532;-76
2021/05/14 10:41:55;;;;;;;1.43;1.30;;;14.40;99.90;;;;;;4940471;29;20477;-75
2021/05/14 10:44:42;;;;;;;4.50;2.17;;;14.40;99.90;;;;;;4917609;29;20465;-75
2021/05/14 10:47:21;;;;;;;1.90;1.80;;;14.40;99.90;;;;;;4898008;29;20528;-75
2021/05/14 10:49:52;;;;;;;2.00;1.80;;;14.50;99.90;;;;;;4935358;29;20421;-73
2021/05/14 10:52:19;;;;;;;2.07;1.60;;;14.80;99.90;;;;;;4932313;28;20941;-72
2021/05/14 10:54:48;;;;;;;4.23;1.60;;;14.90;99.90;;;;;;4927557;29;20945;-76
2021/05/14 10:57:40;;;;;;;3.73;1.93;;;14.90;99.90;;;;;;4936102;28;20704;-75
2021/05/14 11:00:30;;;;;;;1.80;1.70;;;14.90;99.90;;;;;;4921189;29;20428;-75
2021/05/14 11:03:15;;;;;;;1.67;1.37;;;14.90;99.90;;;;;;4952974;28;20502;-75
2021/05/14 11:06:07;;;;;;;1.60;1.27;;;14.80;99.90;;;;;;4936974;29;20932;-76
2021/05/14 11:08:34;;;;;;;3.63;1.67;;;14.80;99.90;;;;;;4935128;29;20515;-75
2021/05/14 11:11:11;;;;;;;2.37;1.10;;;14.70;99.90;;;;;;4936850;29;20922;-74
2021/05/14 11:13:52;;;;;;;1.77;1.40;;;14.70;99.90;;;;;;4952488;28;20483;-74
2021/05/14 11:16:42;;;;;;;2.60;1.77;;;14.70;99.90;;;;;;4954043;29;20433;-74
2021/05/14 11:19:43;;;;;;;1.83;1.27;;;14.80;99.90;;;;;;4952180;28;20470;-76
2021/05/14 11:22:17;;;;;;;1.57;1.47;;;14.90;99.90;;;;;;4936381;28;20442;-75
2021/05/14 11:24:45;;;;;;;1.90;1.53;;;14.90;99.90;;;;;;4952677;28;20471;-75
2021/05/14 11:27:16;;;;;;;2.20;1.67;;;15.00;99.90;;;;;;4953623;28;20992;-74
2021/05/14 11:29:53;;;;;;;1.93;1.37;;;15.10;99.90;;;;;;4969114;28;20443;-75
2021/05/14 11:32:25;;;;;;;2.10;1.13;;;15.10;99.90;;;;;;4936212;28;20530;-76
2021/05/14 11:35:06;;;;;;;0.97;0.80;;;15.10;99.90;;;;;;4937288;29;20435;-76
2021/05/14 11:37:36;;;;;;;1.30;1.20;;;15.10;99.90;;;;;;4936664;29;20473;-74
2021/05/14 11:40:15;;;;;;;1.20;1.10;;;15.10;99.90;;;;;;4967889;28;20454;-74
2021/05/14 11:43:06;;;;;;;1.27;1.17;;;15.30;99.90;;;;;;4982226;28;20465;-74
2021/05/14 11:45:39;;;;;;;1.30;0.90;;;15.40;99.90;;;;;;4937048;29;20510;-74
2021/05/14 11:48:14;;;;;;;4.30;1.30;;;15.60;99.90;;;;;;4965554;28;20554;-73
2021/05/14 11:50:44;;;;;;;2.40;1.10;;;15.70;99.90;;;;;;4966652;28;20937;-74
2021/05/14 11:53:11;;;;;;;2.50;1.90;;;15.90;99.90;;;;;;4962229;28;20467;-75
2021/05/14 11:55:41;;;;;;;3.47;1.97;;;16.10;99.90;;;;;;4972396;28;20514;-74
2021/05/14 11:58:10;;;;;;;0.87;0.87;;;16.30;99.90;;;;;;4955022;28;20510;-73
2021/05/14 12:00:43;;;;;;;0.80;0.80;;;16.40;99.90;;;;;;4955115;28;20470;-74
2021/05/14 12:03:14;;;;;;;0.70;0.50;;;16.50;99.20;;;;;;4955179;28;20481;-76
2021/05/14 12:05:43;;;;;;;1.43;0.80;;;16.60;99.60;;;;;;4951513;28;20994;-74
2021/05/14 12:08:19;;;;;;;1.70;0.80;;;16.60;98.40;;;;;;4990694;28;20473;-76
2021/05/14 12:10:48;;;;;;;0.80;0.70;;;16.60;98.50;;;;;;4975447;28;20446;-73
2021/05/14 12:13:17;;;;;;;2.40;1.00;;;16.50;98.60;;;;;;4975464;28;20467;-75
2021/05/14 12:15:46;;;;;;;1.17;1.07;;;16.60;97.40;;;;;;4958410;28;20431;-74
2021/05/14 12:18:17;;;;;;;1.50;0.90;;;16.50;97.20;;;;;;4973469;28;20475;-74
2021/05/14 12:20:45;;;;;;;2.50;1.10;;;16.30;95.70;;;;;;4959334;28;20423;-74
2021/05/14 12:23:13;;;;;;;2.60;1.13;;;16.20;95.40;;;;;;4957255;28;20498;-77
2021/05/14 12:25:58;;;;;;;1.40;1.30;;;16.20;96.70;;;;;;4940940;28;20454;-76
2021/05/14 12:28:33;;;;;;;2.40;1.03;;;16.20;99.60;;;;;;4957800;28;20477;-74
2021/05/14 12:31:16;;;;;;;1.03;0.90;;;16.20;99.60;;;;;;4958741;28;20484;-74
2021/05/14 12:33:53;;;;;;;1.33;0.80;;;16.10;99.70;;;;;;4973673;28;20901;-74
2021/05/14 12:36:34;;;;;;;0.90;0.60;;;16.10;96.90;;;;;;4974740;28;20490;-76
2021/05/14 12:39:10;;;;;;;0.80;0.60;;;16.00;94.90;;;;;;4978796;28;20842;-74
2021/05/14 12:41:49;;;;;;;1.00;0.73;;;15.80;98.50;;;;;;4974429;28;20486;-75
2021/05/14 12:44:19;;;;;;;1.37;0.97;;;15.70;99.90;;;;;;4975145;28;20470;-75
2021/05/14 12:47:14;;;;;;;2.17;0.80;;;15.60;99.90;;;;;;4973452;28;20513;-75
2021/05/14 12:49:55;;;;;;;1.23;0.80;;;15.60;99.90;;;;;;4939903;28;20466;-75
2021/05/14 12:52:37;;;;;;;1.00;0.63;;;15.70;99.90;;;;;;4950873;28;20496;-75
2021/05/14 12:55:20;;;;;;;1.30;1.07;;;15.90;99.90;;;;;;4969421;28;20453;-75
2021/05/14 12:57:56;;;;;;;1.43;0.53;;;15.90;99.90;;;;;;4974520;28;20470;-75
2021/05/14 13:00:43;;;;;;;1.50;0.90;;;16.10;98.50;;;;;;4975005;28;20493;-74
2021/05/14 13:03:13;;;;;;;0.83;0.53;;;16.10;99.20;;;;;;4974775;28;20466;-75
2021/05/14 13:05:57;;;;;;;1.50;0.50;;;16.10;97.70;;;;;;4957414;28;20529;-74
2021/05/14 13:08:41;;;;;;;0.93;0.57;;;16.10;98.70;;;;;;4973635;28;20489;-76
2021/05/14 13:11:19;;;;;;;1.33;0.73;;;16.10;96.80;;;;;;4975349;28;20781;-74
2021/05/14 13:13:57;;;;;;;2.10;0.60;;;16.10;94.50;;;;;;4974550;28;20755;-75
2021/05/14 13:16:24;;;;;;;1.57;0.50;;;16.10;95.00;;;;;;4957048;28;20465;-75